createdAt,value
2022-11-06T00:00:26.072Z,98.43
2022-11-06T00:01:26.352Z,98.32
2022-11-06T00:02:26.223Z,98.53
2022-11-06T00:03:25.262Z,98.53
2022-11-06T00:04:25.252Z,98.63
2022-11-06T00:05:25.172Z,98.84
2022-11-06T00:06:25.184Z,98.84
2022-11-06T00:07:25.133Z,98.94
2022-11-06T00:08:25.123Z,98.94
2022-11-06T00:09:25.113Z,98.94
2022-11-06T00:10:25.093Z,99.05
2022-11-06T00:11:25.111Z,99.05
2022-11-06T00:12:25.945Z,99.05
2022-11-06T00:13:25.846Z,99.15
2022-11-06T00:14:25.041Z,99.15
2022-11-06T00:15:25.030Z,99.05
2022-11-06T00:16:25.046Z,99.05
2022-11-06T00:17:25.291Z,99.25
2022-11-06T00:18:24.983Z,99.35
2022-11-06T00:19:25.302Z,99.05
2022-11-06T00:20:24.965Z,99.05
2022-11-06T00:21:24.984Z,99.05
2022-11-06T00:22:24.931Z,99.05
2022-11-06T00:23:24.928Z,99.30
2022-11-06T00:24:24.913Z,99.25
2022-11-06T00:25:25.640Z,99.51
2022-11-06T00:26:24.921Z,99.25
2022-11-06T00:27:24.870Z,99.25
2022-11-06T00:28:24.863Z,99.15
2022-11-06T00:29:24.850Z,99.19
2022-11-06T00:30:24.834Z,99.25
2022-11-06T00:31:24.851Z,99.19
2022-11-06T00:32:24.812Z,99.19
2022-11-06T00:33:24.790Z,99.09
2022-11-06T00:34:24.780Z,98.99
2022-11-06T00:35:24.772Z,99.09
2022-11-06T00:36:24.782Z,99.19
2022-11-06T00:37:24.739Z,99.40
2022-11-06T00:38:24.720Z,99.51
2022-11-06T00:39:24.720Z,99.51
2022-11-06T00:40:24.698Z,99.40
2022-11-06T00:41:25.463Z,99.44
2022-11-06T00:42:25.619Z,99.34
2022-11-06T00:43:24.661Z,99.44
2022-11-06T00:44:24.640Z,99.96
2022-11-06T00:45:24.644Z,99.99
2022-11-06T00:46:24.627Z,99.99
2022-11-06T00:47:24.872Z,99.99
2022-11-06T00:48:24.599Z,99.99
2022-11-06T00:49:24.990Z,99.99
2022-11-06T00:50:24.569Z,99.99
2022-11-06T00:51:24.563Z,99.99
2022-11-06T00:52:24.858Z,99.99
2022-11-06T00:53:24.530Z,99.99
2022-11-06T00:54:24.517Z,99.99
2022-11-06T00:55:24.506Z,99.99
2022-11-06T00:56:24.488Z,99.99
2022-11-06T00:57:24.508Z,99.99
2022-11-06T00:58:24.460Z,99.99
2022-11-06T00:59:24.456Z,99.99
2022-11-06T01:00:24.504Z,99.99
2022-11-06T01:01:24.567Z,99.99
2022-11-06T01:02:24.651Z,99.99
2022-11-06T01:03:25.146Z,99.99
2022-11-06T01:04:25.157Z,99.99
2022-11-06T01:05:25.177Z,99.99
2022-11-06T01:06:24.354Z,99.99
2022-11-06T01:07:24.376Z,99.99
2022-11-06T01:08:24.337Z,99.99
2022-11-06T01:09:24.328Z,99.99
2022-11-06T01:10:24.727Z,99.99
2022-11-06T01:11:25.148Z,99.99
2022-11-06T01:12:25.047Z,99.99
2022-11-06T01:13:24.267Z,99.99
2022-11-06T01:14:24.249Z,99.99
2022-11-06T01:15:24.247Z,99.99
2022-11-06T01:16:24.227Z,99.99
2022-11-06T01:17:24.245Z,99.99
2022-11-06T01:18:24.207Z,99.99
2022-11-06T01:19:24.199Z,99.99
2022-11-06T01:20:24.173Z,99.99
2022-11-06T01:21:24.795Z,99.99
2022-11-06T01:22:24.187Z,99.99
2022-11-06T01:23:24.854Z,99.99
2022-11-06T01:24:24.199Z,99.99
2022-11-06T01:25:24.132Z,99.99
2022-11-06T01:26:37.299Z,99.99
2022-11-06T01:27:27.062Z,99.99
2022-11-06T01:28:25.046Z,99.99
2022-11-06T01:29:24.064Z,99.99
2022-11-06T01:30:24.044Z,99.99
2022-11-06T01:31:24.034Z,99.99
2022-11-06T01:32:24.075Z,99.99
2022-11-06T01:33:24.825Z,99.99
2022-11-06T01:34:23.992Z,99.99
2022-11-06T01:35:24.002Z,99.99
2022-11-06T01:36:23.966Z,99.99
2022-11-06T01:37:23.985Z,99.99
2022-11-06T01:38:24.855Z,99.99
2022-11-06T01:39:23.926Z,99.99
2022-11-06T01:40:23.982Z,99.99
2022-11-06T01:41:24.824Z,99.99
2022-11-06T01:42:23.922Z,99.98
2022-11-06T01:43:23.873Z,99.77
2022-11-06T01:44:23.862Z,99.87
2022-11-06T01:45:23.852Z,99.77
2022-11-06T01:46:23.841Z,99.46
2022-11-06T01:47:24.169Z,99.46
2022-11-06T01:48:23.882Z,99.46
2022-11-06T01:49:23.801Z,99.66
2022-11-06T01:50:24.311Z,99.77
2022-11-06T01:51:23.774Z,99.46
2022-11-06T01:52:23.781Z,99.66
2022-11-06T01:53:23.741Z,99.62
2022-11-06T01:54:23.723Z,99.62
2022-11-06T01:55:23.715Z,99.05
2022-11-06T01:56:24.633Z,99.31
2022-11-06T01:57:23.711Z,99.41
2022-11-06T01:58:24.830Z,99.41
2022-11-06T01:59:23.663Z,99.10
2022-11-06T02:00:23.648Z,99.21
2022-11-06T02:01:23.807Z,99.31
2022-11-06T02:02:24.487Z,99.31
2022-11-06T02:03:23.611Z,99.31
2022-11-06T02:04:23.601Z,99.21
2022-11-06T02:05:23.595Z,99.00
2022-11-06T02:06:23.569Z,99.10
2022-11-06T02:07:23.589Z,99.00
2022-11-06T02:08:24.281Z,98.79
2022-11-06T02:09:24.679Z,99.00
2022-11-06T02:10:24.339Z,99.31
2022-11-06T02:11:24.288Z,99.10
2022-11-06T02:12:23.529Z,99.10
2022-11-06T02:13:23.550Z,99.21
2022-11-06T02:14:23.599Z,99.31
2022-11-06T02:15:23.658Z,99.41
2022-11-06T02:16:23.507Z,99.52
2022-11-06T02:17:23.765Z,99.41
2022-11-06T02:18:23.819Z,99.21
2022-11-06T02:19:23.888Z,99.31
2022-11-06T02:20:23.939Z,99.31
2022-11-06T02:21:24.000Z,99.31
2022-11-06T02:22:24.057Z,99.31
2022-11-06T02:23:24.108Z,99.21
2022-11-06T02:24:24.166Z,99.10
2022-11-06T02:25:24.221Z,99.21
2022-11-06T02:26:24.089Z,99.21
2022-11-06T02:27:24.247Z,99.31
2022-11-06T02:28:24.147Z,99.21
2022-11-06T02:29:23.345Z,99.31
2022-11-06T02:30:24.407Z,99.31
2022-11-06T02:31:24.117Z,99.52
2022-11-06T02:32:23.257Z,99.52
2022-11-06T02:33:24.191Z,99.52
2022-11-06T02:34:24.086Z,99.52
2022-11-06T02:35:23.994Z,99.52
2022-11-06T02:36:24.146Z,99.52
2022-11-06T02:37:24.056Z,99.62
2022-11-06T02:38:23.956Z,99.62
2022-11-06T02:39:24.115Z,99.72
2022-11-06T02:40:23.845Z,99.72
2022-11-06T02:41:23.106Z,99.82
2022-11-06T02:42:23.127Z,99.99
2022-11-06T02:43:23.183Z,99.99
2022-11-06T02:44:23.235Z,99.99
2022-11-06T02:45:23.295Z,99.99
2022-11-06T02:46:23.344Z,99.99
2022-11-06T02:47:23.405Z,99.99
2022-11-06T02:48:23.465Z,99.99
2022-11-06T02:49:23.524Z,99.99
2022-11-06T02:50:23.584Z,99.99
2022-11-06T02:51:23.746Z,99.99
2022-11-06T02:52:23.703Z,99.99
2022-11-06T02:53:23.764Z,99.99
2022-11-06T02:54:23.706Z,99.99
2022-11-06T02:55:22.923Z,99.99
2022-11-06T02:56:23.774Z,99.99
2022-11-06T02:57:23.671Z,99.99
2022-11-06T02:58:23.835Z,99.99
2022-11-06T02:59:23.443Z,99.99
2022-11-06T03:00:23.641Z,99.99
2022-11-06T03:01:23.876Z,99.99
2022-11-06T03:02:24.418Z,99.99
2022-11-06T03:03:23.604Z,99.99
2022-11-06T03:04:23.781Z,99.99
2022-11-06T03:05:23.673Z,99.99
2022-11-06T03:06:23.572Z,99.99
2022-11-06T03:07:23.762Z,99.99
2022-11-06T03:08:23.644Z,99.99
2022-11-06T03:09:23.542Z,99.99
2022-11-06T03:10:22.731Z,99.99
2022-11-06T03:11:22.762Z,99.99
2022-11-06T03:12:22.823Z,99.99
2022-11-06T03:13:22.880Z,99.99
2022-11-06T03:14:22.932Z,99.99
2022-11-06T03:15:22.981Z,99.99
2022-11-06T03:16:23.041Z,99.99
2022-11-06T03:17:23.099Z,99.99
2022-11-06T03:18:23.150Z,99.99
2022-11-06T03:19:22.610Z,99.99
2022-11-06T03:20:22.601Z,99.99
2022-11-06T03:21:23.363Z,99.99
2022-11-06T03:22:23.323Z,99.99
2022-11-06T03:23:23.430Z,99.99
2022-11-06T03:24:28.234Z,99.99
2022-11-06T03:25:23.540Z,99.99
2022-11-06T03:26:22.522Z,99.99
2022-11-06T03:27:23.350Z,99.99
2022-11-06T03:28:22.510Z,99.99
2022-11-06T03:29:23.413Z,99.99
2022-11-06T03:30:23.319Z,99.99
2022-11-06T03:31:23.225Z,99.99
2022-11-06T03:32:23.380Z,99.99
2022-11-06T03:33:23.288Z,99.99
2022-11-06T03:34:23.189Z,99.99
2022-11-06T03:35:23.349Z,99.99
2022-11-06T03:36:23.257Z,99.99
2022-11-06T03:37:23.160Z,99.99
2022-11-06T03:38:23.321Z,99.99
2022-11-06T03:39:22.339Z,99.99
2022-11-06T03:40:22.370Z,99.99
2022-11-06T03:41:22.430Z,99.99
2022-11-06T03:42:22.489Z,99.99
2022-11-06T03:43:22.289Z,99.99
2022-11-06T03:44:22.649Z,99.99
2022-11-06T03:45:22.656Z,99.99
2022-11-06T03:46:22.710Z,99.99
2022-11-06T03:47:22.764Z,99.99
2022-11-06T03:48:22.816Z,99.99
2022-11-06T03:49:22.875Z,99.99
2022-11-06T03:50:22.928Z,99.99
2022-11-06T03:51:22.986Z,99.99
2022-11-06T03:52:22.998Z,99.99
2022-11-06T03:53:22.909Z,99.99
2022-11-06T03:54:23.057Z,99.99
2022-11-06T03:55:22.967Z,99.99
2022-11-06T03:56:22.867Z,99.99
2022-11-06T03:57:23.038Z,99.99
2022-11-06T03:58:22.980Z,99.99
2022-11-06T03:59:22.837Z,99.99
2022-11-06T04:00:22.172Z,99.99
2022-11-06T04:01:22.996Z,99.99
2022-11-06T04:02:22.987Z,99.99
2022-11-06T04:03:22.968Z,99.99
2022-11-06T04:04:22.876Z,99.99
2022-11-06T04:05:22.778Z,99.99
2022-11-06T04:06:22.935Z,99.99
2022-11-06T04:07:22.838Z,99.99
2022-11-06T04:08:21.964Z,99.99
2022-11-06T04:09:22.006Z,99.99
2022-11-06T04:10:22.067Z,99.99
2022-11-06T04:11:22.127Z,99.99
2022-11-06T04:12:22.214Z,99.99
2022-11-06T04:13:22.242Z,99.99
2022-11-06T04:14:22.300Z,99.99
2022-11-06T04:15:22.355Z,99.99
2022-11-06T04:16:22.405Z,99.99
2022-11-06T04:17:22.465Z,99.99
2022-11-06T04:18:22.526Z,99.99
2022-11-06T04:19:22.574Z,99.99
2022-11-06T04:20:22.615Z,99.99
2022-11-06T04:21:22.179Z,99.99
2022-11-06T04:22:22.682Z,99.99
2022-11-06T04:23:21.774Z,99.99
2022-11-06T04:24:22.485Z,99.99
2022-11-06T04:25:21.856Z,99.99
2022-11-06T04:26:22.558Z,99.99
2022-11-06T04:27:22.463Z,99.99
2022-11-06T04:28:22.616Z,99.99
2022-11-06T04:29:22.525Z,99.99
2022-11-06T04:30:22.425Z,99.99
2022-11-06T04:31:21.664Z,99.99
2022-11-06T04:32:22.743Z,99.99
2022-11-06T04:33:22.162Z,99.99
2022-11-06T04:34:22.563Z,99.99
2022-11-06T04:35:21.691Z,99.99
2022-11-06T04:36:22.363Z,99.99
2022-11-06T04:37:21.640Z,99.99
2022-11-06T04:38:21.634Z,99.99
2022-11-06T04:39:21.692Z,99.99
2022-11-06T04:40:21.751Z,99.99
2022-11-06T04:41:21.802Z,99.99
2022-11-06T04:42:21.863Z,99.99
2022-11-06T04:43:21.672Z,99.99
2022-11-06T04:44:21.972Z,99.99
2022-11-06T04:45:22.033Z,99.99
2022-11-06T04:46:22.084Z,99.99
2022-11-06T04:47:22.148Z,99.99
2022-11-06T04:48:22.202Z,99.99
2022-11-06T04:49:22.254Z,99.99
2022-11-06T04:50:22.302Z,99.99
2022-11-06T04:51:22.201Z,99.99
2022-11-06T04:52:22.102Z,99.99
2022-11-06T04:53:21.393Z,99.99
2022-11-06T04:54:22.171Z,99.99
2022-11-06T04:55:22.335Z,99.99
2022-11-06T04:56:24.744Z,99.99
2022-11-06T04:57:21.384Z,99.99
2022-11-06T04:58:22.042Z,99.99
2022-11-06T04:59:22.201Z,99.99
2022-11-06T05:00:22.103Z,99.99
2022-11-06T05:01:22.144Z,99.99
2022-11-06T05:02:22.219Z,99.99
2022-11-06T05:03:22.070Z,99.99
2022-11-06T05:04:21.982Z,99.99
2022-11-06T05:05:22.141Z,99.99
2022-11-06T05:06:23.558Z,99.99
2022-11-06T05:07:22.979Z,99.99
2022-11-06T05:08:21.311Z,99.99
2022-11-06T05:09:21.369Z,99.99
2022-11-06T05:10:21.432Z,99.99
2022-11-06T05:11:21.480Z,99.99
2022-11-06T05:12:21.179Z,99.99
2022-11-06T05:13:21.590Z,99.99
2022-11-06T05:14:21.648Z,99.99
2022-11-06T05:15:21.089Z,99.99
2022-11-06T05:16:21.749Z,99.99
2022-11-06T05:17:21.809Z,99.99
2022-11-06T05:18:21.863Z,99.99
2022-11-06T05:19:21.818Z,99.99
2022-11-06T05:20:21.968Z,99.99
2022-11-06T05:21:21.879Z,99.99
2022-11-06T05:22:21.779Z,99.99
2022-11-06T05:23:21.962Z,99.99
2022-11-06T05:24:21.848Z,99.99
2022-11-06T05:25:20.960Z,99.99
2022-11-06T05:26:21.907Z,99.99
2022-11-06T05:27:21.699Z,99.99
2022-11-06T05:28:21.717Z,99.99
2022-11-06T05:29:21.878Z,99.99
2022-11-06T05:30:21.398Z,99.99
2022-11-06T05:31:21.687Z,99.99
2022-11-06T05:32:20.898Z,99.99
2022-11-06T05:33:20.875Z,99.99
2022-11-06T05:34:21.667Z,99.99
2022-11-06T05:35:20.835Z,99.99
2022-11-06T05:36:20.855Z,99.99
2022-11-06T05:37:20.907Z,99.99
2022-11-06T05:38:20.965Z,99.99
2022-11-06T05:39:21.016Z,99.99
2022-11-06T05:40:21.083Z,99.99
2022-11-06T05:41:21.146Z,99.99
2022-11-06T05:42:20.898Z,99.99
2022-11-06T05:43:21.244Z,99.99
2022-11-06T05:44:21.298Z,99.99
2022-11-06T05:45:21.246Z,99.99
2022-11-06T05:46:46.969Z,99.99
2022-11-06T05:47:22.548Z,99.99
2022-11-06T05:48:21.518Z,99.99
2022-11-06T05:49:21.499Z,99.99
2022-11-06T05:50:21.404Z,99.99
2022-11-06T05:51:21.035Z,99.99
2022-11-06T05:52:20.976Z,99.99
2022-11-06T05:53:21.205Z,99.99
2022-11-06T05:54:21.184Z,99.99
2022-11-06T05:55:21.435Z,99.99
2022-11-06T05:56:21.164Z,99.99
2022-11-06T05:57:21.498Z,99.99
2022-11-06T05:58:21.405Z,99.99
2022-11-06T05:59:21.303Z,99.99
2022-11-06T06:00:21.378Z,99.99
2022-11-06T06:01:21.409Z,99.99
2022-11-06T06:02:21.053Z,99.99
2022-11-06T06:03:21.184Z,99.99
2022-11-06T06:04:20.402Z,99.99
2022-11-06T06:05:20.564Z,99.99
2022-11-06T06:06:20.383Z,99.99
2022-11-06T06:07:20.613Z,99.99
2022-11-06T06:08:20.703Z,99.99
2022-11-06T06:09:20.742Z,99.99
2022-11-06T06:10:20.722Z,99.99
2022-11-06T06:11:24.250Z,99.99
2022-11-06T06:12:20.562Z,99.99
2022-11-06T06:13:21.041Z,99.99
2022-11-06T06:14:20.940Z,99.99
2022-11-06T06:15:20.999Z,99.99
2022-11-06T06:16:21.101Z,99.99
2022-11-06T06:17:21.193Z,99.99
2022-11-06T06:18:20.512Z,99.99
2022-11-06T06:19:21.179Z,99.99
2022-11-06T06:20:21.093Z,99.99
2022-11-06T06:21:20.992Z,99.99
2022-11-06T06:22:20.909Z,99.99
2022-11-06T06:23:21.133Z,99.99
2022-11-06T06:24:20.846Z,99.99
2022-11-06T06:25:23.050Z,99.99
2022-11-06T06:26:21.017Z,99.99
2022-11-06T06:27:21.003Z,99.99
2022-11-06T06:28:20.900Z,99.99
2022-11-06T06:29:20.220Z,99.99
2022-11-06T06:30:21.039Z,99.99
2022-11-06T06:31:20.760Z,99.99
2022-11-06T06:32:20.891Z,99.99
2022-11-06T06:33:20.032Z,99.99
2022-11-06T06:34:20.030Z,99.99
2022-11-06T06:35:20.130Z,99.99
2022-11-06T06:36:20.192Z,99.99
2022-11-06T06:37:20.458Z,99.99
2022-11-06T06:38:20.302Z,99.99
2022-11-06T06:39:20.411Z,99.99
2022-11-06T06:40:20.400Z,99.99
2022-11-06T06:41:20.458Z,99.99
2022-11-06T06:42:20.512Z,99.99
2022-11-06T06:43:20.008Z,99.99
2022-11-06T06:44:20.649Z,99.99
2022-11-06T06:45:20.528Z,99.99
2022-11-06T06:46:20.637Z,99.99
2022-11-06T06:47:20.588Z,99.99
2022-11-06T06:48:20.702Z,99.99
2022-11-06T06:49:20.602Z,99.99
2022-11-06T06:50:20.760Z,99.99
2022-11-06T06:51:24.002Z,99.99
2022-11-06T06:52:20.567Z,99.99
2022-11-06T06:53:20.475Z,99.99
2022-11-06T06:54:20.635Z,99.99
2022-11-06T06:55:20.987Z,99.99
2022-11-06T06:56:20.698Z,99.99
2022-11-06T06:57:20.607Z,99.99
2022-11-06T06:58:21.084Z,99.99
2022-11-06T06:59:20.407Z,99.99
2022-11-06T07:00:21.161Z,99.99
2022-11-06T07:01:20.867Z,99.99
2022-11-06T07:02:19.666Z,99.99
2022-11-06T07:03:19.647Z,99.99
2022-11-06T07:04:19.697Z,99.99
2022-11-06T07:05:19.754Z,99.99
2022-11-06T07:06:19.795Z,99.99
2022-11-06T07:07:19.856Z,99.99
2022-11-06T07:08:19.916Z,99.99
2022-11-06T07:09:19.972Z,99.99
2022-11-06T07:10:19.896Z,99.99
2022-11-06T07:11:19.526Z,99.99
2022-11-06T07:12:20.215Z,99.99
2022-11-06T07:13:20.196Z,99.99
2022-11-06T07:14:20.252Z,99.99
2022-11-06T07:15:20.305Z,99.99
2022-11-06T07:16:20.396Z,99.99
2022-11-06T07:17:19.454Z,99.99
2022-11-06T07:18:20.374Z,99.99
2022-11-06T07:19:20.286Z,99.99
2022-11-06T07:20:19.402Z,99.99
2022-11-06T07:21:19.394Z,99.99
2022-11-06T07:22:27.757Z,99.99
2022-11-06T07:23:20.756Z,99.99
2022-11-06T07:24:19.364Z,99.99
2022-11-06T07:25:19.364Z,99.99
2022-11-06T07:26:19.364Z,99.99
2022-11-06T07:27:20.764Z,99.99
2022-11-06T07:28:19.619Z,99.99
2022-11-06T07:29:19.371Z,99.99
2022-11-06T07:30:19.367Z,99.99
2022-11-06T07:31:19.522Z,99.99
2022-11-06T07:32:19.465Z,99.99
2022-11-06T07:33:19.302Z,99.99
2022-11-06T07:34:19.368Z,99.99
2022-11-06T07:35:19.444Z,99.99
2022-11-06T07:36:19.372Z,99.99
2022-11-06T07:37:19.430Z,99.99
2022-11-06T07:38:19.360Z,99.99
2022-11-06T07:39:19.454Z,99.99
2022-11-06T07:40:19.370Z,99.99
2022-11-06T07:41:19.360Z,99.99
2022-11-06T07:42:19.453Z,99.99
2022-11-06T07:43:19.364Z,99.99
2022-11-06T07:44:19.380Z,99.99
2022-11-06T07:45:19.366Z,99.99
2022-11-06T07:46:19.353Z,99.99
2022-11-06T07:47:19.360Z,99.99
2022-11-06T07:48:19.359Z,99.99
2022-11-06T07:49:19.364Z,99.99
2022-11-06T07:50:19.361Z,99.99
2022-11-06T07:51:19.360Z,99.99
2022-11-06T07:52:19.360Z,99.99
2022-11-06T07:53:19.361Z,99.99
2022-11-06T07:54:19.362Z,99.99
2022-11-06T07:55:19.360Z,99.99
2022-11-06T07:56:19.361Z,99.94
2022-11-06T07:57:19.370Z,99.94
2022-11-06T07:58:19.362Z,99.99
2022-11-06T07:59:18.969Z,99.94
2022-11-06T08:00:19.359Z,99.79
2022-11-06T08:01:19.312Z,99.69
2022-11-06T08:02:18.976Z,99.48
2022-11-06T08:03:18.969Z,99.17
2022-11-06T08:04:19.030Z,99.17
2022-11-06T08:05:19.079Z,98.82
2022-11-06T08:06:19.144Z,98.82
2022-11-06T08:07:19.189Z,98.61
2022-11-06T08:08:19.250Z,98.41
2022-11-06T08:09:19.306Z,98.20
2022-11-06T08:10:19.358Z,98.20
2022-11-06T08:11:19.367Z,97.85
2022-11-06T08:12:19.359Z,97.33
2022-11-06T08:13:19.358Z,97.23
2022-11-06T08:14:19.358Z,96.92
2022-11-06T08:15:19.098Z,96.50
2022-11-06T08:16:19.357Z,95.84
2022-11-06T08:17:19.368Z,96.09
2022-11-06T08:18:19.357Z,95.53
2022-11-06T08:19:19.298Z,95.84
2022-11-06T08:20:19.370Z,95.84
2022-11-06T08:21:19.360Z,95.64
2022-11-06T08:22:19.357Z,95.74
2022-11-06T08:23:19.358Z,94.92
2022-11-06T08:24:21.960Z,94.87
2022-11-06T08:25:19.318Z,94.40
2022-11-06T08:26:19.326Z,94.77
2022-11-06T08:27:19.106Z,94.36
2022-11-06T08:28:19.278Z,93.43
2022-11-06T08:29:19.366Z,93.54
2022-11-06T08:30:18.487Z,92.92
2022-11-06T08:31:18.529Z,93.33
2022-11-06T08:32:18.575Z,93.59
2022-11-06T08:33:18.636Z,92.67
2022-11-06T08:34:18.688Z,92.46
2022-11-06T08:35:18.739Z,92.57
2022-11-06T08:36:18.497Z,92.25
2022-11-06T08:37:18.854Z,92.36
2022-11-06T08:38:19.337Z,92.01
2022-11-06T08:39:19.196Z,91.60
2022-11-06T08:40:19.016Z,91.70
2022-11-06T08:41:19.164Z,91.39
2022-11-06T08:42:19.025Z,90.78
2022-11-06T08:43:19.125Z,90.67
2022-11-06T08:44:19.035Z,90.47
2022-11-06T08:45:19.198Z,91.19
2022-11-06T08:46:19.097Z,90.78
2022-11-06T08:47:18.998Z,91.08
2022-11-06T08:48:19.191Z,91.29
2022-11-06T08:49:18.546Z,90.67
2022-11-06T08:50:19.363Z,90.83
2022-11-06T08:51:18.295Z,90.01
2022-11-06T08:52:18.416Z,90.42
2022-11-06T08:53:18.475Z,89.81
2022-11-06T08:54:19.095Z,90.32
2022-11-06T08:55:19.003Z,90.32
2022-11-06T08:56:18.905Z,89.70
2022-11-06T08:57:19.064Z,89.25
2022-11-06T08:58:18.973Z,89.66
2022-11-06T08:59:18.873Z,89.04
2022-11-06T09:00:18.084Z,89.56
2022-11-06T09:01:18.162Z,89.46
2022-11-06T09:02:18.202Z,88.95
2022-11-06T09:03:18.305Z,88.02
2022-11-06T09:04:18.072Z,88.74
2022-11-06T09:05:18.344Z,87.92
2022-11-06T09:06:18.393Z,88.23
2022-11-06T09:07:18.444Z,88.02
2022-11-06T09:08:18.423Z,88.08
2022-11-06T09:09:18.614Z,88.18
2022-11-06T09:10:18.613Z,88.49
2022-11-06T09:11:18.654Z,88.08
2022-11-06T09:12:18.707Z,88.80
2022-11-06T09:13:18.762Z,87.43
2022-11-06T09:14:18.714Z,87.32
2022-11-06T09:15:18.614Z,87.12
2022-11-06T09:16:17.903Z,86.19
2022-11-06T09:17:18.687Z,86.40
2022-11-06T09:18:18.421Z,86.50
2022-11-06T09:19:18.744Z,86.81
2022-11-06T09:20:18.653Z,87.32
2022-11-06T09:21:18.324Z,87.63
2022-11-06T09:22:22.992Z,86.71
2022-11-06T09:23:18.553Z,87.05
2022-11-06T09:24:27.499Z,87.73
2022-11-06T09:25:19.453Z,87.32
2022-11-06T09:26:17.782Z,87.12
2022-11-06T09:27:18.007Z,87.22
2022-11-06T09:28:18.655Z,87.22
2022-11-06T09:29:19.366Z,87.12
2022-11-06T09:30:17.703Z,87.43
2022-11-06T09:31:17.732Z,86.71
2022-11-06T09:32:17.794Z,86.66
2022-11-06T09:33:18.211Z,84.96
2022-11-06T09:34:17.733Z,85.74
2022-11-06T09:35:17.690Z,86.66
2022-11-06T09:36:18.019Z,86.36
2022-11-06T09:37:18.068Z,86.36
2022-11-06T09:38:18.121Z,86.46
2022-11-06T09:39:17.682Z,85.23
2022-11-06T09:40:18.232Z,85.44
2022-11-06T09:41:18.312Z,86.25
2022-11-06T09:42:18.332Z,85.64
2022-11-06T09:43:27.244Z,85.33
2022-11-06T09:44:19.371Z,85.95
2022-11-06T09:45:18.512Z,86.15
2022-11-06T09:46:18.452Z,86.15
2022-11-06T09:47:18.398Z,86.01
2022-11-06T09:48:18.262Z,84.68
2022-11-06T09:49:18.515Z,84.27
2022-11-06T09:50:18.331Z,84.99
2022-11-06T09:51:17.693Z,84.27
2022-11-06T09:52:17.601Z,84.33
2022-11-06T09:53:18.783Z,83.82
2022-11-06T09:54:18.172Z,83.37
2022-11-06T09:55:18.541Z,83.58
2022-11-06T09:56:18.395Z,83.68
2022-11-06T09:57:18.061Z,81.63
2022-11-06T09:58:18.092Z,82.65
2022-11-06T09:59:17.313Z,82.96
2022-11-06T10:00:17.400Z,83.27
2022-11-06T10:01:23.293Z,82.55
2022-11-06T10:02:19.297Z,81.52
2022-11-06T10:03:17.321Z,83.37
2022-11-06T10:04:17.541Z,81.94
2022-11-06T10:05:17.590Z,81.79
2022-11-06T10:06:17.651Z,81.49
2022-11-06T10:07:17.700Z,81.08
2022-11-06T10:08:17.762Z,81.70
2022-11-06T10:09:17.815Z,81.38
2022-11-06T10:10:17.868Z,81.63
2022-11-06T10:11:18.014Z,82.21
2022-11-06T10:12:17.971Z,81.52
2022-11-06T10:13:18.133Z,81.73
2022-11-06T10:14:18.070Z,81.79
2022-11-06T10:15:17.830Z,82.10
2022-11-06T10:16:17.880Z,81.35
2022-11-06T10:17:18.041Z,81.62
2022-11-06T10:18:18.202Z,79.88
2022-11-06T10:19:17.849Z,79.84
2022-11-06T10:20:20.872Z,78.27
2022-11-06T10:21:18.450Z,79.19
2022-11-06T10:22:18.483Z,77.15
2022-11-06T10:23:17.722Z,78.85
2022-11-06T10:24:17.881Z,76.19
2022-11-06T10:25:17.786Z,76.26
2022-11-06T10:26:17.683Z,76.67
2022-11-06T10:27:17.569Z,76.43
2022-11-06T10:28:17.758Z,76.12
2022-11-06T10:29:16.922Z,75.82
2022-11-06T10:30:16.939Z,76.32
2022-11-06T10:31:17.013Z,75.82
2022-11-06T10:32:17.054Z,75.61
2022-11-06T10:33:17.106Z,75.61
2022-11-06T10:34:16.900Z,74.49
2022-11-06T10:35:17.218Z,74.90
2022-11-06T10:36:17.269Z,75.61
2022-11-06T10:37:16.958Z,74.79
2022-11-06T10:38:17.520Z,75.27
2022-11-06T10:39:17.481Z,74.96
2022-11-06T10:40:17.539Z,74.45
2022-11-06T10:41:17.527Z,74.01
2022-11-06T10:42:17.689Z,73.10
2022-11-06T10:43:17.719Z,72.99
2022-11-06T10:44:17.646Z,74.15
2022-11-06T10:45:16.857Z,74.35
2022-11-06T10:46:16.697Z,74.66
2022-11-06T10:47:16.698Z,75.48
2022-11-06T10:48:16.861Z,74.86
2022-11-06T10:49:16.700Z,74.86
2022-11-06T10:50:16.704Z,74.76
2022-11-06T10:51:16.828Z,73.64
2022-11-06T10:52:16.700Z,73.81
2022-11-06T10:53:16.598Z,73.91
2022-11-06T10:54:16.703Z,74.52
2022-11-06T10:55:16.699Z,73.60
2022-11-06T10:56:20.980Z,73.47
2022-11-06T10:57:17.139Z,73.97
2022-11-06T10:58:16.996Z,73.33
2022-11-06T10:59:16.707Z,73.10
2022-11-06T11:00:16.561Z,73.19
2022-11-06T11:01:16.700Z,73.30
2022-11-06T11:02:16.739Z,72.17
2022-11-06T11:03:16.565Z,71.60
2022-11-06T11:04:16.772Z,73.43
2022-11-06T11:05:16.474Z,72.31
2022-11-06T11:06:16.499Z,71.56
2022-11-06T11:07:21.334Z,73.64
2022-11-06T11:08:18.269Z,72.72
2022-11-06T11:09:16.690Z,73.88
2022-11-06T11:10:17.289Z,74.59
2022-11-06T11:11:16.695Z,75.20
2022-11-06T11:12:16.699Z,75.68
2022-11-06T11:13:16.698Z,75.37
2022-11-06T11:14:16.543Z,75.27
2022-11-06T11:15:16.712Z,73.91
2022-11-06T11:16:16.390Z,74.32
2022-11-06T11:17:16.457Z,72.82
2022-11-06T11:18:16.763Z,74.76
2022-11-06T11:19:16.289Z,73.81
2022-11-06T11:20:16.610Z,75.34
2022-11-06T11:21:16.238Z,76.26
2022-11-06T11:22:16.279Z,77.38
2022-11-06T11:23:16.230Z,76.46
2022-11-06T11:24:16.202Z,75.61
2022-11-06T11:25:16.189Z,75.82
2022-11-06T11:26:16.210Z,76.09
2022-11-06T11:27:16.240Z,75.48
2022-11-06T11:28:16.477Z,74.35
2022-11-06T11:29:16.180Z,75.48
2022-11-06T11:30:16.130Z,74.55
2022-11-06T11:31:16.092Z,74.18
2022-11-06T11:32:16.299Z,74.01
2022-11-06T11:33:16.051Z,75.95
2022-11-06T11:34:16.150Z,75.13
2022-11-06T11:35:16.741Z,75.65
2022-11-06T11:36:16.019Z,74.35
2022-11-06T11:37:16.210Z,76.26
2022-11-06T11:38:16.297Z,75.95
2022-11-06T11:39:16.481Z,76.06
2022-11-06T11:40:16.227Z,75.34
2022-11-06T11:41:16.252Z,75.58
2022-11-06T11:42:16.299Z,75.27
2022-11-06T11:43:15.921Z,76.03
2022-11-06T11:44:15.910Z,76.74
2022-11-06T11:45:16.249Z,76.98
2022-11-06T11:46:15.920Z,77.59
2022-11-06T11:47:15.878Z,77.83
2022-11-06T11:48:16.331Z,78.34
2022-11-06T11:49:15.839Z,77.70
2022-11-06T11:50:16.325Z,77.80
2022-11-06T11:51:16.311Z,78.11
2022-11-06T11:52:15.807Z,77.86
2022-11-06T11:53:15.790Z,77.86
2022-11-06T11:54:15.878Z,76.90
2022-11-06T11:55:15.760Z,76.90
2022-11-06T11:56:15.930Z,76.43
2022-11-06T11:57:16.191Z,78.44
2022-11-06T11:58:15.884Z,77.08
2022-11-06T11:59:16.151Z,77.38
2022-11-06T12:00:15.808Z,77.14
2022-11-06T12:01:15.677Z,76.93
2022-11-06T12:02:16.092Z,77.45
2022-11-06T12:03:15.981Z,76.32
2022-11-06T12:04:15.990Z,75.51
2022-11-06T12:05:16.049Z,75.20
2022-11-06T12:06:15.610Z,75.82
2022-11-06T12:07:15.600Z,75.31
2022-11-06T12:08:16.513Z,74.79
2022-11-06T12:09:15.620Z,73.94
2022-11-06T12:10:15.765Z,73.43
2022-11-06T12:11:20.433Z,73.06
2022-11-06T12:12:15.540Z,74.76
2022-11-06T12:13:16.230Z,72.75
2022-11-06T12:14:15.703Z,73.88
2022-11-06T12:15:15.490Z,75.10
2022-11-06T12:16:15.540Z,75.48
2022-11-06T12:17:15.482Z,74.29
2022-11-06T12:18:16.656Z,74.18
2022-11-06T12:19:15.490Z,75.20
2022-11-06T12:20:15.638Z,75.61
2022-11-06T12:21:15.537Z,73.57
2022-11-06T12:22:15.393Z,73.88
2022-11-06T12:23:15.384Z,74.18
2022-11-06T12:24:15.547Z,74.79
2022-11-06T12:25:16.340Z,75.20
2022-11-06T12:26:16.150Z,75.31
2022-11-06T12:27:16.340Z,73.88
2022-11-06T12:28:16.570Z,74.49
2022-11-06T12:29:15.449Z,74.42
2022-11-06T12:30:15.342Z,73.91
2022-11-06T12:31:15.361Z,74.46
2022-11-06T12:32:15.370Z,74.46
2022-11-06T12:33:15.480Z,75.48
2022-11-06T12:34:17.672Z,75.27
2022-11-06T12:35:15.441Z,75.48
2022-11-06T12:36:15.709Z,75.44
2022-11-06T12:37:15.330Z,75.85
2022-11-06T12:38:15.498Z,75.24
2022-11-06T12:39:15.321Z,75.10
2022-11-06T12:40:16.768Z,74.32
2022-11-06T12:41:15.140Z,73.60
2022-11-06T12:42:15.251Z,73.47
2022-11-06T12:43:15.510Z,73.98
2022-11-06T12:44:15.175Z,74.49
2022-11-06T12:45:15.096Z,73.98
2022-11-06T12:46:15.110Z,73.64
2022-11-06T12:47:15.460Z,72.14
2022-11-06T12:48:15.364Z,73.47
2022-11-06T12:49:15.245Z,74.38
2022-11-06T12:50:15.024Z,73.47
2022-11-06T12:51:15.034Z,72.45
2022-11-06T12:52:15.103Z,72.55